Airport View

Enter AWOS ICAO identifier for current METAR.

ex. KFNL

KPKD 212253Z AUTO 24008KT 10SM CLR 24/15 A2966 RMK AO2 SLP038 T02390150

21 Sep 2019 23:54

Frequency: 110.6

Phone: 218-732-0920

Other Area AWOS: KY49 - KADC - KPWC - KSAZ

TAF AMD KBJI 211739Z 2118/2218 20011KT P6SM BKN015 OVC025 FM212200 21012KT P6SM VCSH SCT100 FM220400 24014KT P6SM BKN025 FM221600 28011KT P6SM SCT040